Time;durP1;ratioP1;P1;durP2;ratioP2;P2;SDS_P1;SDS_P2;PMS_P1;PMS_P2;Temp;Humidity;BMP_temperature;BMP_pressure;BME280_temperature;BME280_humidity;BME280_pressure;Samples;Min_cycle;Max_cycle;Signal;HPM_P1;HPM_P2
2020/12/08 00:00:59;;;;;;;32.55;12.82;;;2.70;99.90;;;;;;5073651;28;20024;-73
2020/12/08 00:03:25;;;;;;;33.97;13.18;;;2.70;99.90;;;;;;5073170;28;20457;-72
2020/12/08 00:05:51;;;;;;;35.72;13.38;;;2.70;99.90;;;;;;5072668;28;20020;-73
2020/12/08 00:08:17;;;;;;;38.45;13.48;;;2.70;99.90;;;;;;5073278;28;20031;-73
2020/12/08 00:10:42;;;;;;;36.83;13.77;;;2.70;99.90;;;;;;5075076;28;20021;-73
2020/12/08 00:13:08;;;;;;;35.75;13.73;;;2.70;99.90;;;;;;5076759;28;20078;-72
2020/12/08 00:15:33;;;;;;;37.03;12.85;;;2.70;99.90;;;;;;5076263;28;20033;-73
2020/12/08 00:17:59;;;;;;;36.90;14.43;;;2.70;99.90;;;;;;5074895;28;20094;-73
2020/12/08 00:20:24;;;;;;;37.85;14.57;;;2.70;99.90;;;;;;5073405;28;20039;-73
2020/12/08 00:22:50;;;;;;;41.40;14.50;;;2.70;99.90;;;;;;5076327;28;20020;-72
2020/12/08 00:25:19;;;;;;;39.75;14.90;;;2.70;99.90;;;;;;5076217;28;20024;-72
2020/12/08 00:27:48;;;;;;;37.22;14.13;;;2.70;99.90;;;;;;5075754;28;20032;-72
2020/12/08 00:30:17;;;;;;;35.20;13.52;;;2.70;99.90;;;;;;5076377;28;20028;-72
2020/12/08 00:32:44;;;;;;;40.50;14.70;;;2.70;99.90;;;;;;5076291;28;20028;-73
2020/12/08 00:35:11;;;;;;;37.10;13.98;;;2.70;99.90;;;;;;5075872;28;20020;-73
2020/12/08 00:37:36;;;;;;;37.38;14.07;;;2.70;99.90;;;;;;5075565;28;20493;-73
2020/12/08 00:40:03;;;;;;;36.35;13.95;;;2.70;99.90;;;;;;5075973;28;20020;-72
2020/12/08 00:42:29;;;;;;;39.75;15.32;;;2.70;99.90;;;;;;5074400;28;20028;-72
2020/12/08 00:44:54;;;;;;;39.97;15.27;;;2.70;99.90;;;;;;5076308;28;20047;-72
2020/12/08 00:47:20;;;;;;;40.50;14.77;;;2.70;99.90;;;;;;5074172;28;20012;-73
2020/12/08 00:49:45;;;;;;;36.92;14.32;;;2.70;99.90;;;;;;5075761;28;20024;-73
2020/12/08 00:52:11;;;;;;;41.67;14.85;;;2.70;99.90;;;;;;5074017;28;20029;-73
2020/12/08 00:54:36;;;;;;;39.42;15.57;;;2.70;99.90;;;;;;5074486;28;20385;-73
2020/12/08 00:57:02;;;;;;;39.70;14.27;;;2.70;99.90;;;;;;5074166;28;20029;-74
2020/12/08 00:59:28;;;;;;;35.90;13.52;;;2.70;99.90;;;;;;5075385;28;20035;-74
2020/12/08 01:01:53;;;;;;;36.22;13.85;;;2.70;99.90;;;;;;5075419;28;20081;-74
2020/12/08 01:04:19;;;;;;;40.97;13.80;;;2.80;99.90;;;;;;5075524;28;20112;-74
2020/12/08 01:06:44;;;;;;;38.88;15.32;;;2.80;99.90;;;;;;5073938;28;20115;-73
2020/12/08 01:09:10;;;;;;;41.22;15.57;;;2.90;99.90;;;;;;5074836;28;20024;-73
2020/12/08 01:11:45;;;;;;;41.35;14.70;;;2.80;99.90;;;;;;5075146;28;20027;-73
2020/12/08 01:14:11;;;;;;;37.15;15.07;;;2.80;99.90;;;;;;5075313;28;20031;-73
2020/12/08 01:16:37;;;;;;;39.83;15.90;;;2.80;99.90;;;;;;5075054;28;20037;-73
2020/12/08 01:19:03;;;;;;;41.55;15.57;;;2.80;99.90;;;;;;5073452;28;20029;-73
2020/12/08 01:21:29;;;;;;;40.40;14.88;;;2.70;99.90;;;;;;5074935;28;20036;-73
2020/12/08 01:23:55;;;;;;;39.60;14.68;;;2.70;99.90;;;;;;5074384;28;20037;-72
2020/12/08 01:26:22;;;;;;;36.30;15.05;;;2.70;99.90;;;;;;5074464;28;20021;-72
2020/12/08 01:28:48;;;;;;;38.05;15.20;;;2.70;99.90;;;;;;5075107;28;20158;-72
2020/12/08 01:31:14;;;;;;;34.53;14.70;;;2.70;99.90;;;;;;5074853;28;20099;-72
2020/12/08 01:33:39;;;;;;;35.10;14.88;;;2.70;99.90;;;;;;5073430;28;20025;-72
2020/12/08 01:36:05;;;;;;;36.15;14.20;;;2.70;99.90;;;;;;5075321;28;20098;-72
2020/12/08 01:38:30;;;;;;;42.08;16.65;;;2.70;99.90;;;;;;5074771;28;20023;-72
2020/12/08 01:40:56;;;;;;;36.88;15.77;;;2.70;99.90;;;;;;5074960;28;20020;-72
2020/12/08 01:43:22;;;;;;;34.80;14.15;;;2.70;99.90;;;;;;5074563;28;20056;-72
2020/12/08 01:45:47;;;;;;;37.08;14.73;;;2.70;99.90;;;;;;5073410;28;20128;-72
2020/12/08 01:48:17;;;;;;;34.65;14.05;;;2.70;99.90;;;;;;5073449;28;20016;-72
2020/12/08 01:50:43;;;;;;;;;;;2.70;99.90;;;;;;5073538;28;20537;-72
2020/12/08 01:53:12;;;;;;;37.10;14.35;;;4.00;99.90;;;;;;5075063;28;19954;-72
2020/12/08 01:55:38;;;;;;;37.47;14.68;;;2.70;99.90;;;;;;5072701;28;20028;-72
2020/12/08 01:58:14;;;;;;;35.33;13.00;;;2.60;99.90;;;;;;5070408;28;20017;-72
2020/12/08 02:00:39;;;;;;;33.40;14.88;;;2.60;99.90;;;;;;5053171;28;20064;-72
2020/12/08 02:03:05;;;;;;;35.40;14.15;;;2.60;99.90;;;;;;5054272;28;20061;-73
2020/12/08 02:05:30;;;;;;;36.67;15.30;;;2.50;99.90;;;;;;5073471;28;21256;-72
2020/12/08 02:07:56;;;;;;;36.85;15.65;;;2.60;99.90;;;;;;5073908;28;20032;-72
2020/12/08 02:10:21;;;;;;;36.65;14.48;;;2.60;99.90;;;;;;5074449;28;20381;-73
2020/12/08 02:12:47;;;;;;;38.55;15.68;;;2.50;99.90;;;;;;5074379;28;20020;-73
2020/12/08 02:15:12;;;;;;;39.10;15.48;;;2.50;99.90;;;;;;5074258;28;20036;-73
2020/12/08 02:17:38;;;;;;;36.75;14.73;;;2.60;99.90;;;;;;5074314;28;20036;-73
2020/12/08 02:20:04;;;;;;;35.13;14.27;;;2.60;99.90;;;;;;5072888;28;20029;-73
2020/12/08 02:22:30;;;;;;;35.53;14.45;;;2.60;99.90;;;;;;5074328;28;20021;-73
2020/12/08 02:24:55;;;;;;;38.53;14.25;;;2.60;99.90;;;;;;5074122;28;20028;-72
2020/12/08 02:27:21;;;;;;;35.72;14.02;;;2.60;99.90;;;;;;5073399;28;20020;-72
2020/12/08 02:29:46;;;;;;;37.17;14.40;;;2.60;99.90;;;;;;5073021;28;20111;-72
2020/12/08 02:32:12;;;;;;;36.83;13.38;;;2.60;99.90;;;;;;5072230;28;20471;-73
2020/12/08 02:34:37;;;;;;;34.30;14.13;;;2.60;99.90;;;;;;5074700;28;20025;-73
2020/12/08 02:37:03;;;;;;;34.83;12.88;;;2.50;99.90;;;;;;5073802;28;20017;-73
2020/12/08 02:39:28;;;;;;;38.15;13.38;;;2.40;99.90;;;;;;5073198;28;20020;-73
2020/12/08 02:41:55;;;;;;;35.53;13.73;;;2.40;99.90;;;;;;5074251;28;20078;-72
2020/12/08 02:44:21;;;;;;;33.67;13.70;;;2.30;99.90;;;;;;5072921;28;20052;-73
2020/12/08 02:46:51;;;;;;;35.30;14.07;;;2.30;99.90;;;;;;5054045;28;20039;-73
2020/12/08 02:49:17;;;;;;;37.67;13.73;;;2.30;99.90;;;;;;5060955;28;20016;-73
2020/12/08 02:51:43;;;;;;;35.75;13.63;;;2.30;99.90;;;;;;5072754;28;20036;-73
2020/12/08 02:54:09;;;;;;;28.83;11.77;;;2.30;99.90;;;;;;5072746;28;20071;-73
2020/12/08 02:56:34;;;;;;;33.00;14.10;;;2.30;99.90;;;;;;5073931;28;20033;-72
2020/12/08 02:59:00;;;;;;;33.10;12.60;;;2.30;99.90;;;;;;5073040;28;20485;-73
2020/12/08 03:01:25;;;;;;;30.48;11.10;;;2.30;99.90;;;;;;5073748;28;20037;-72
2020/12/08 03:03:51;;;;;;;33.22;13.30;;;2.30;99.90;;;;;;5073226;28;20025;-72
2020/12/08 03:06:17;;;;;;;31.38;12.82;;;2.30;99.90;;;;;;5069135;28;20086;-72
2020/12/08 03:08:42;;;;;;;32.40;12.57;;;2.20;99.90;;;;;;5073501;28;20029;-72
2020/12/08 03:11:08;;;;;;;30.15;12.45;;;2.20;99.90;;;;;;5073915;28;20036;-72
2020/12/08 03:13:33;;;;;;;30.65;11.80;;;2.20;99.90;;;;;;5074025;28;20028;-72
2020/12/08 03:15:59;;;;;;;27.60;11.45;;;2.10;99.90;;;;;;5072558;28;20115;-72
2020/12/08 03:18:24;;;;;;;30.70;12.15;;;2.20;99.90;;;;;;5072170;28;20071;-72
2020/12/08 03:20:51;;;;;;;26.08;10.70;;;2.20;99.90;;;;;;5072814;28;20495;-72
2020/12/08 03:23:16;;;;;;;26.60;10.40;;;2.10;99.90;;;;;;5073457;28;20021;-73
2020/12/08 03:25:42;;;;;;;24.90;10.77;;;2.10;99.90;;;;;;5072838;28;20099;-73
2020/12/08 03:28:07;;;;;;;27.15;10.63;;;2.10;99.90;;;;;;5073601;28;20021;-73
2020/12/08 03:30:33;;;;;;;27.20;11.23;;;2.10;99.90;;;;;;5072079;28;20025;-73
2020/12/08 03:32:59;;;;;;;27.77;10.90;;;2.10;99.90;;;;;;5074125;28;20028;-73
2020/12/08 03:35:24;;;;;;;26.55;11.05;;;2.10;99.90;;;;;;5072265;28;20056;-73
2020/12/08 03:37:50;;;;;;;23.15;10.13;;;2.10;99.90;;;;;;5071963;28;20445;-72
2020/12/08 03:40:15;;;;;;;22.60;9.55;;;2.10;99.90;;;;;;5073261;28;20021;-73
2020/12/08 03:42:41;;;;;;;22.45;9.32;;;2.10;99.90;;;;;;5074520;28;20028;-75
2020/12/08 03:45:06;;;;;;;24.70;9.43;;;2.00;99.90;;;;;;5077843;28;20104;-73
2020/12/08 03:47:32;;;;;;;21.83;9.45;;;1.90;99.90;;;;;;5077264;28;20560;-73
2020/12/08 03:49:57;;;;;;;24.27;10.00;;;1.90;99.90;;;;;;5075816;28;20029;-72
2020/12/08 03:52:23;;;;;;;25.95;9.13;;;1.90;99.90;;;;;;5077211;28;20017;-74
2020/12/08 03:54:48;;;;;;;20.27;8.52;;;1.80;99.90;;;;;;5077913;28;20099;-74
2020/12/08 03:57:14;;;;;;;21.85;8.75;;;1.80;99.90;;;;;;5076046;28;20107;-72
2020/12/08 03:59:40;;;;;;;23.90;9.20;;;1.70;99.90;;;;;;5076004;28;20013;-72
2020/12/08 04:02:05;;;;;;;23.35;9.13;;;1.70;99.90;;;;;;5077420;28;20024;-72
2020/12/08 04:04:31;;;;;;;21.38;7.90;;;1.60;99.90;;;;;;5077061;28;20035;-72
2020/12/08 04:06:56;;;;;;;18.80;8.60;;;1.60;99.90;;;;;;5068082;28;20390;-73
2020/12/08 04:09:22;;;;;;;28.05;9.25;;;1.60;99.90;;;;;;5074604;28;20390;-73
2020/12/08 04:11:47;;;;;;;20.70;8.70;;;1.50;99.90;;;;;;5075678;28;20146;-73
2020/12/08 04:14:13;;;;;;;19.80;7.82;;;1.50;99.90;;;;;;5076973;28;20029;-74
2020/12/08 04:16:38;;;;;;;18.35;8.63;;;1.40;99.90;;;;;;5076822;28;20055;-72
2020/12/08 04:19:04;;;;;;;20.20;8.23;;;1.30;99.90;;;;;;5075623;28;20416;-72
2020/12/08 04:21:30;;;;;;;17.02;7.57;;;1.30;99.90;;;;;;5077166;28;20060;-72
2020/12/08 04:24:00;;;;;;;18.50;7.35;;;1.20;99.90;;;;;;5075742;28;20104;-72
2020/12/08 04:26:30;;;;;;;20.70;7.38;;;1.20;99.90;;;;;;5076696;28;20492;-72
2020/12/08 04:28:55;;;;;;;17.92;7.15;;;1.20;99.90;;;;;;5076506;28;20017;-72
2020/12/08 04:31:21;;;;;;;18.13;7.70;;;1.20;99.90;;;;;;5076869;28;20016;-72
2020/12/08 04:33:47;;;;;;;19.42;8.05;;;1.20;99.90;;;;;;5076691;28;20108;-72
2020/12/08 04:36:14;;;;;;;17.08;7.03;;;1.20;99.90;;;;;;5076660;28;20036;-72
2020/12/08 04:38:40;;;;;;;18.05;7.38;;;1.20;99.90;;;;;;5076697;28;20043;-73
2020/12/08 04:41:06;;;;;;;21.92;7.60;;;1.10;99.90;;;;;;5076060;28;20103;-73
2020/12/08 04:43:32;;;;;;;16.85;7.18;;;1.20;99.90;;;;;;5076005;28;20425;-73
2020/12/08 04:45:58;;;;;;;26.90;9.70;;;1.20;99.90;;;;;;5075306;28;20027;-72
2020/12/08 04:48:23;;;;;;;19.98;8.02;;;1.20;99.90;;;;;;5075801;28;20028;-73
2020/12/08 04:50:49;;;;;;;18.20;7.13;;;1.20;99.90;;;;;;5075789;28;20104;-73
2020/12/08 04:53:16;;;;;;;17.20;7.60;;;1.30;99.90;;;;;;5075557;28;20028;-72
2020/12/08 04:55:41;;;;;;;17.95;7.28;;;1.30;99.90;;;;;;5075046;28;20082;-72
2020/12/08 04:58:09;;;;;;;22.63;8.98;;;1.30;99.90;;;;;;5076474;28;20067;-73
2020/12/08 05:00:41;;;;;;;18.75;6.75;;;1.40;99.90;;;;;;5076392;28;20025;-73
2020/12/08 05:03:07;;;;;;;19.65;8.00;;;1.50;99.90;;;;;;5072855;28;20490;-74
2020/12/08 05:05:42;;;;;;;19.67;7.63;;;1.50;99.90;;;;;;5072350;28;20381;-72
2020/12/08 05:08:10;;;;;;;17.60;8.07;;;1.50;99.90;;;;;;5075350;28;20040;-72
2020/12/08 05:10:35;;;;;;;16.10;7.47;;;1.60;99.90;;;;;;5075574;28;20021;-73
2020/12/08 05:13:01;;;;;;;19.00;7.75;;;1.60;99.90;;;;;;5074885;28;20039;-72
2020/12/08 05:15:27;;;;;;;15.20;6.65;;;1.50;99.90;;;;;;5075895;28;20108;-73
2020/12/08 05:18:03;;;;;;;17.05;6.93;;;1.60;99.90;;;;;;5073891;28;20120;-74
2020/12/08 05:20:30;;;;;;;15.73;7.15;;;1.60;99.90;;;;;;5075137;28;20099;-73
2020/12/08 05:22:57;;;;;;;20.02;7.57;;;1.50;99.90;;;;;;5075524;28;20373;-72
2020/12/08 05:25:25;;;;;;;16.95;6.28;;;1.40;99.90;;;;;;5074660;28;20027;-73
2020/12/08 05:27:56;;;;;;;17.25;7.07;;;1.40;99.90;;;;;;5073689;28;20379;-73
2020/12/08 05:30:22;;;;;;;17.20;7.15;;;1.30;99.90;;;;;;5074974;28;20017;-72
2020/12/08 05:32:48;;;;;;;15.57;7.13;;;1.20;99.90;;;;;;5075079;28;20052;-73
2020/12/08 05:35:20;;;;;;;18.73;7.90;;;1.20;99.90;;;;;;5074743;28;20055;-74
2020/12/08 05:37:48;;;;;;;20.42;7.75;;;1.10;99.90;;;;;;5074999;28;20046;-74
2020/12/08 05:40:22;;;;;;;16.42;7.05;;;1.00;99.90;;;;;;5074678;28;20020;-74
2020/12/08 05:42:49;;;;;;;16.65;7.53;;;1.00;99.90;;;;;;5073291;28;20024;-74
2020/12/08 05:45:20;;;;;;;15.63;7.10;;;0.90;99.90;;;;;;5074311;28;20020;-73
2020/12/08 05:47:54;;;;;;;17.08;7.18;;;0.90;99.90;;;;;;5074636;28;20078;-73
2020/12/08 05:50:21;;;;;;;18.60;7.50;;;0.90;99.90;;;;;;5074771;28;20032;-74
2020/12/08 05:52:58;;;;;;;20.65;6.25;;;0.80;99.90;;;;;;5074498;28;20086;-73
2020/12/08 05:55:32;;;;;;;15.13;6.68;;;0.80;99.90;;;;;;5074217;28;20036;-73
2020/12/08 05:58:07;;;;;;;16.08;6.28;;;0.80;99.90;;;;;;5074348;28;20040;-74
2020/12/08 06:00:33;;;;;;;14.98;6.63;;;0.80;99.90;;;;;;5074405;28;20135;-72
2020/12/08 06:03:13;;;;;;;15.00;6.18;;;0.80;99.90;;;;;;5074443;28;20074;-72
2020/12/08 06:05:44;;;;;;;18.67;6.78;;;0.70;99.90;;;;;;5074178;28;20102;-74
2020/12/08 06:08:15;;;;;;;18.15;6.65;;;0.70;99.90;;;;;;5074197;28;20111;-74
2020/12/08 06:10:45;;;;;;;16.75;7.18;;;0.70;99.90;;;;;;5074293;28;20009;-74
2020/12/08 06:13:25;;;;;;;15.43;6.43;;;0.60;99.90;;;;;;5073889;28;20056;-73
2020/12/08 06:15:51;;;;;;;22.25;7.15;;;0.60;99.90;;;;;;5074320;28;20042;-73
2020/12/08 06:18:30;;;;;;;16.67;6.90;;;0.60;99.90;;;;;;5072523;28;20142;-73
2020/12/08 06:20:57;;;;;;;19.35;6.88;;;0.60;99.90;;;;;;5074087;28;20031;-73
2020/12/08 06:23:22;;;;;;;19.95;7.20;;;0.50;99.90;;;;;;5073691;28;20027;-72
2020/12/08 06:25:56;;;;;;;15.32;7.22;;;0.50;99.90;;;;;;5074143;28;20024;-73
2020/12/08 06:28:22;;;;;;;16.75;6.55;;;1.00;99.90;;;;;;5074561;28;20078;-73
2020/12/08 06:30:48;;;;;;;17.00;7.20;;;0.50;99.90;;;;;;5074087;28;20051;-73
2020/12/08 06:33:13;;;;;;;20.23;7.72;;;0.50;99.90;;;;;;5073818;28;20485;-73
2020/12/08 06:35:39;;;;;;;22.08;7.25;;;0.40;99.90;;;;;;5074099;28;20377;-74
2020/12/08 06:38:04;;;;;;;16.90;7.03;;;0.30;99.90;;;;;;5073986;28;20033;-75
2020/12/08 06:40:30;;;;;;;16.85;7.03;;;0.40;99.90;;;;;;5074071;28;20035;-76
2020/12/08 06:42:56;;;;;;;22.88;7.47;;;0.40;99.90;;;;;;5073635;28;20119;-73
2020/12/08 06:45:23;;;;;;;20.67;7.25;;;0.40;99.90;;;;;;5074142;28;20023;-74
2020/12/08 06:47:50;;;;;;;15.95;7.05;;;0.40;99.90;;;;;;5073917;28;20024;-75
2020/12/08 06:50:28;;;;;;;18.50;7.97;;;0.40;99.90;;;;;;5072548;28;20526;-74
2020/12/08 06:53:01;;;;;;;20.25;7.00;;;0.50;99.90;;;;;;5074431;28;20040;-75
2020/12/08 06:55:28;;;;;;;18.13;7.55;;;0.60;99.90;;;;;;5070006;28;20105;-76
2020/12/08 06:58:04;;;;;;;20.90;7.90;;;0.70;99.90;;;;;;5069229;28;20031;-75
2020/12/08 07:00:29;;;;;;;19.90;7.18;;;0.70;99.90;;;;;;5070785;28;20028;-75
2020/12/08 07:02:55;;;;;;;20.20;7.13;;;0.80;99.90;;;;;;5072230;28;20028;-76
2020/12/08 07:05:29;;;;;;;17.48;7.78;;;0.80;99.90;;;;;;5072483;28;20028;-75
2020/12/08 07:07:58;;;;;;;19.80;7.82;;;0.80;99.90;;;;;;5074091;28;20024;-75
2020/12/08 07:10:24;;;;;;;18.77;7.00;;;0.90;99.90;;;;;;5074242;28;20021;-75
2020/12/08 07:12:54;;;;;;;17.80;6.85;;;0.90;99.90;;;;;;5074036;28;20074;-75
2020/12/08 07:15:25;;;;;;;18.10;6.82;;;0.90;99.90;;;;;;5073867;28;20071;-75
2020/12/08 07:17:53;;;;;;;17.70;7.47;;;1.00;99.90;;;;;;5075307;28;20016;-74
2020/12/08 07:20:19;;;;;;;21.13;7.18;;;1.00;99.90;;;;;;5076305;28;20422;-73
2020/12/08 07:22:45;;;;;;;18.80;7.22;;;1.10;99.90;;;;;;5077496;28;20029;-73
2020/12/08 07:25:13;;;;;;;17.58;7.50;;;1.10;99.90;;;;;;5077723;28;20031;-73
2020/12/08 07:27:45;;;;;;;16.98;7.45;;;1.10;99.90;;;;;;5077399;28;20074;-73
2020/12/08 07:30:12;;;;;;;17.67;6.85;;;1.20;99.90;;;;;;5094033;28;20454;-73
2020/12/08 07:32:38;;;;;;;19.05;7.85;;;1.30;99.90;;;;;;5077128;28;20104;-73
2020/12/08 07:35:05;;;;;;;18.10;7.63;;;1.30;99.90;;;;;;5075802;28;20060;-73
2020/12/08 07:37:37;;;;;;;22.90;7.90;;;1.30;99.90;;;;;;5077398;28;20031;-73
2020/12/08 07:40:10;;;;;;;16.67;6.57;;;1.30;99.90;;;;;;5075846;28;20021;-73
2020/12/08 07:42:37;;;;;;;18.52;7.75;;;1.40;99.90;;;;;;5077416;28;20106;-73
2020/12/08 07:45:06;;;;;;;17.90;7.20;;;1.40;99.90;;;;;;5077057;28;20059;-73
2020/12/08 07:47:32;;;;;;;19.13;7.38;;;1.40;99.90;;;;;;5076942;28;20024;-73
2020/12/08 07:49:57;;;;;;;20.52;7.80;;;1.50;99.90;;;;;;5076772;28;20020;-73
2020/12/08 07:52:23;;;;;;;16.77;7.57;;;1.50;99.90;;;;;;5077023;28;20417;-73
2020/12/08 07:54:48;;;;;;;19.52;7.50;;;1.50;99.90;;;;;;5075596;28;20142;-72
2020/12/08 07:57:14;;;;;;;19.55;7.28;;;1.50;99.90;;;;;;5077354;28;20038;-73
2020/12/08 07:59:40;;;;;;;19.48;7.30;;;1.50;99.90;;;;;;5076543;28;20422;-73
2020/12/08 08:02:05;;;;;;;15.60;7.20;;;1.50;99.90;;;;;;5075373;28;20051;-73
2020/12/08 08:04:34;;;;;;;19.52;7.43;;;1.60;99.90;;;;;;5076654;28;20028;-73
2020/12/08 08:06:59;;;;;;;14.63;5.25;;;1.60;99.90;;;;;;5076658;28;20021;-73
2020/12/08 08:09:25;;;;;;;15.88;7.45;;;1.60;99.90;;;;;;5076490;28;20031;-73
2020/12/08 08:11:51;;;;;;;20.48;7.07;;;1.70;99.90;;;;;;5076523;28;20039;-73
2020/12/08 08:14:16;;;;;;;23.08;7.88;;;1.80;99.90;;;;;;5076457;28;20036;-73
2020/12/08 08:16:42;;;;;;;19.63;7.72;;;1.80;99.90;;;;;;5076650;28;20021;-74
2020/12/08 08:19:07;;;;;;;16.27;7.05;;;1.80;99.90;;;;;;5075471;28;20013;-74
2020/12/08 08:21:33;;;;;;;18.30;7.78;;;1.90;99.90;;;;;;5075291;28;20017;-74
2020/12/08 08:23:59;;;;;;;21.15;8.13;;;1.90;99.90;;;;;;5075056;28;20101;-74
2020/12/08 08:26:26;;;;;;;20.92;7.72;;;1.90;99.90;;;;;;5076846;28;20377;-74
2020/12/08 08:28:52;;;;;;;15.07;7.05;;;1.90;99.90;;;;;;5075307;28;20020;-74
2020/12/08 08:31:18;;;;;;;18.85;7.57;;;2.00;99.90;;;;;;5076019;28;20547;-74
2020/12/08 08:33:43;;;;;;;17.63;7.55;;;1.90;99.90;;;;;;5074785;28;20029;-74
2020/12/08 08:36:09;;;;;;;21.40;8.48;;;2.00;99.90;;;;;;5074725;28;20031;-74
2020/12/08 08:38:34;;;;;;;20.52;7.78;;;2.00;99.90;;;;;;5074670;28;20016;-73
2020/12/08 08:41:00;;;;;;;15.57;7.28;;;2.00;99.90;;;;;;5074536;28;20060;-73
2020/12/08 08:43:26;;;;;;;17.80;7.57;;;2.00;99.90;;;;;;5076566;28;20017;-74
2020/12/08 08:45:53;;;;;;;17.80;7.75;;;2.00;99.90;;;;;;5075821;28;20013;-74
2020/12/08 08:48:19;;;;;;;17.90;7.13;;;2.00;99.90;;;;;;5076016;28;20017;-74
2020/12/08 08:50:45;;;;;;;20.30;8.25;;;2.10;99.90;;;;;;5076016;28;20029;-74
2020/12/08 08:53:11;;;;;;;23.10;8.95;;;2.10;99.90;;;;;;5074360;28;20031;-74
2020/12/08 08:55:39;;;;;;;21.25;7.82;;;2.10;99.90;;;;;;5076281;28;20032;-74
2020/12/08 08:58:05;;;;;;;16.45;7.15;;;2.10;99.90;;;;;;5074403;28;20524;-74
2020/12/08 09:00:30;;;;;;;16.98;7.95;;;2.10;99.90;;;;;;5075950;28;20025;-74
2020/12/08 09:02:58;;;;;;;19.23;8.02;;;2.20;99.90;;;;;;5075464;28;20039;-74
2020/12/08 09:05:25;;;;;;;17.83;7.60;;;2.20;99.90;;;;;;5074324;28;20013;-74
2020/12/08 09:07:50;;;;;;;19.02;7.60;;;2.20;99.90;;;;;;5152569;22;20036;-74
2020/12/08 09:10:16;;;;;;;21.23;8.07;;;1.80;99.90;;;;;;5094933;28;20034;-74
2020/12/08 09:12:42;;;;;;;18.70;8.38;;;2.20;99.90;;;;;;5094625;28;20024;-74
2020/12/08 09:15:08;;;;;;;17.63;8.25;;;2.20;99.90;;;;;;5096585;28;20434;-74
2020/12/08 09:17:34;;;;;;;18.42;8.13;;;2.30;99.90;;;;;;5096463;28;20016;-73
2020/12/08 09:20:00;;;;;;;21.40;8.23;;;2.30;99.90;;;;;;5094283;28;20495;-73
2020/12/08 09:22:25;;;;;;;21.92;8.52;;;2.30;99.90;;;;;;5093939;28;20024;-73
2020/12/08 09:24:51;;;;;;;16.02;8.02;;;2.30;99.90;;;;;;5094388;28;20030;-73
2020/12/08 09:27:17;;;;;;;21.63;9.10;;;2.40;99.90;;;;;;5093858;28;20031;-73
2020/12/08 09:29:43;;;;;;;22.77;9.40;;;2.40;99.90;;;;;;5095567;28;20373;-73
2020/12/08 09:32:12;;;;;;;19.60;9.02;;;2.50;99.90;;;;;;5095429;28;20063;-73
2020/12/08 09:34:37;;;;;;;;;;;2.50;99.90;;;;;;5095675;28;20472;-73
2020/12/08 09:37:03;;;;;;;17.08;8.07;;;2.60;99.90;;;;;;5095039;28;19904;-73
2020/12/08 09:39:29;;;;;;;20.33;8.45;;;2.70;99.90;;;;;;5094967;28;20048;-73
2020/12/08 09:41:55;;;;;;;19.58;7.93;;;2.70;99.90;;;;;;5093425;28;20027;-73
2020/12/08 09:44:21;;;;;;;18.23;8.98;;;2.80;99.90;;;;;;5093555;28;20039;-73
2020/12/08 09:46:47;;;;;;;18.60;8.57;;;2.80;99.90;;;;;;5094961;28;20469;-73
2020/12/08 09:49:13;;;;;;;18.25;8.18;;;2.80;99.90;;;;;;5093679;28;20048;-73
2020/12/08 09:51:39;;;;;;;19.75;8.43;;;2.90;99.90;;;;;;5093659;28;20107;-73
2020/12/08 09:54:06;;;;;;;18.55;8.07;;;2.90;99.90;;;;;;5093698;28;20028;-73
2020/12/08 09:56:31;;;;;;;22.60;9.38;;;3.00;99.90;;;;;;5094753;28;20062;-73
2020/12/08 09:58:57;;;;;;;15.65;7.95;;;3.00;99.90;;;;;;5094822;28;20036;-73
2020/12/08 10:01:31;;;;;;;18.92;8.80;;;3.10;99.90;;;;;;5094807;28;20030;-73
2020/12/08 10:03:57;;;;;;;21.35;8.88;;;3.10;99.90;;;;;;5094609;28;20032;-73
2020/12/08 10:06:23;;;;;;;16.80;7.95;;;3.20;99.90;;;;;;5094560;28;20024;-73
2020/12/08 10:08:49;;;;;;;21.05;8.68;;;3.30;99.90;;;;;;5092869;28;20400;-73
2020/12/08 10:11:15;;;;;;;19.55;8.57;;;3.40;99.90;;;;;;5092162;28;20024;-74
2020/12/08 10:13:41;;;;;;;18.52;8.40;;;3.40;99.90;;;;;;5094554;28;20485;-74
2020/12/08 10:16:07;;;;;;;19.75;8.75;;;3.40;99.90;;;;;;5094307;28;20020;-74
2020/12/08 10:18:33;;;;;;;19.02;8.48;;;3.40;99.90;;;;;;5093006;28;20115;-74
2020/12/08 10:20:59;;;;;;;18.13;8.95;;;3.40;99.90;;;;;;5094109;28;20024;-74
2020/12/08 10:23:26;;;;;;;18.00;8.50;;;3.50;99.90;;;;;;5094225;28;20097;-74
2020/12/08 10:25:51;;;;;;;18.23;8.45;;;3.50;99.90;;;;;;5094106;28;20099;-74
2020/12/08 10:28:17;;;;;;;18.38;8.95;;;3.60;99.90;;;;;;5093951;28;20141;-74
2020/12/08 10:30:42;;;;;;;18.45;8.10;;;3.60;99.90;;;;;;5094077;28;20020;-74
2020/12/08 10:33:08;;;;;;;22.77;8.75;;;3.60;99.90;;;;;;5092871;28;20115;-74
2020/12/08 10:35:33;;;;;;;16.08;8.18;;;3.70;99.90;;;;;;5092723;28;20024;-74
2020/12/08 10:37:59;;;;;;;18.67;8.38;;;3.70;99.90;;;;;;5092857;28;20477;-74
2020/12/08 10:40:24;;;;;;;20.75;8.88;;;3.70;99.90;;;;;;5094125;28;20111;-74
2020/12/08 10:42:50;;;;;;;19.92;9.65;;;3.80;99.90;;;;;;5092459;28;20115;-74
2020/12/08 10:45:15;;;;;;;17.90;8.88;;;3.80;99.90;;;;;;5094319;28;20024;-74
2020/12/08 10:47:41;;;;;;;18.65;8.80;;;3.80;99.90;;;;;;5093796;28;20059;-74
2020/12/08 10:50:06;;;;;;;22.63;9.00;;;3.90;99.90;;;;;;5093991;28;20099;-74
2020/12/08 10:52:32;;;;;;;18.13;8.52;;;4.00;99.90;;;;;;5093092;28;20154;-74
2020/12/08 10:54:57;;;;;;;18.98;8.35;;;4.10;99.90;;;;;;5093997;28;20028;-74
2020/12/08 10:57:23;;;;;;;19.70;8.70;;;4.20;99.90;;;;;;5094107;28;20024;-73
2020/12/08 10:59:48;;;;;;;16.75;8.13;;;4.40;99.90;;;;;;5094039;28;20026;-74
2020/12/08 11:02:14;;;;;;;17.90;8.60;;;4.50;99.90;;;;;;5093633;28;20055;-74
2020/12/08 11:04:39;;;;;;;17.40;8.27;;;4.70;99.90;;;;;;5093846;28;20107;-74
2020/12/08 11:07:05;;;;;;;20.95;9.52;;;4.90;99.90;;;;;;5092537;28;20396;-74
2020/12/08 11:09:30;;;;;;;21.35;9.02;;;5.00;99.90;;;;;;5094347;28;20036;-74
2020/12/08 11:11:56;;;;;;;18.23;8.32;;;5.20;99.90;;;;;;5092433;28;20028;-74
2020/12/08 11:14:22;;;;;;;19.27;9.35;;;5.30;99.90;;;;;;5094274;28;20526;-74
2020/12/08 11:16:47;;;;;;;17.30;8.40;;;5.30;99.90;;;;;;5093873;28;20161;-74
2020/12/08 11:19:13;;;;;;;18.52;8.30;;;5.40;99.90;;;;;;5093776;28;20020;-73
2020/12/08 11:21:41;;;;;;;17.95;8.88;;;5.40;99.90;;;;;;5093681;28;20078;-73
2020/12/08 11:24:08;;;;;;;16.63;7.95;;;5.40;99.90;;;;;;5093448;28;20073;-73
2020/12/08 11:26:34;;;;;;;17.23;8.57;;;5.40;99.90;;;;;;5092421;28;20052;-73
2020/12/08 11:28:59;;;;;;;20.00;8.60;;;5.30;99.90;;;;;;5093711;28;20038;-73
2020/12/08 11:31:25;;;;;;;19.55;9.00;;;5.40;99.90;;;;;;5092375;28;20020;-73
2020/12/08 11:33:51;;;;;;;17.70;8.52;;;5.20;99.90;;;;;;5092232;28;20016;-74
2020/12/08 11:36:17;;;;;;;19.15;9.20;;;5.10;99.90;;;;;;5093819;28;20109;-74
2020/12/08 11:38:42;;;;;;;19.10;8.40;;;5.10;99.90;;;;;;5094465;28;20020;-74
2020/12/08 11:41:08;;;;;;;18.05;9.00;;;5.10;99.90;;;;;;5094118;28;20146;-74
2020/12/08 11:43:36;;;;;;;18.23;8.90;;;5.10;99.90;;;;;;5092291;28;20119;-74
2020/12/08 11:46:02;;;;;;;19.30;9.48;;;5.10;99.90;;;;;;5093408;28;20015;-74
2020/12/08 11:48:28;;;;;;;18.95;9.25;;;5.20;99.90;;;;;;5093627;28;20519;-74
2020/12/08 11:50:54;;;;;;;18.15;8.73;;;5.20;99.90;;;;;;5093772;28;20016;-74
2020/12/08 11:53:20;;;;;;;20.60;10.07;;;5.30;99.90;;;;;;5093391;28;20032;-74
2020/12/08 11:55:46;;;;;;;20.67;9.07;;;5.30;99.90;;;;;;5093288;28;20043;-74
2020/12/08 11:58:12;;;;;;;19.75;9.57;;;5.40;99.90;;;;;;5093356;28;20605;-74
2020/12/08 12:00:38;;;;;;;16.80;8.50;;;5.40;99.90;;;;;;5092257;28;20112;-74
2020/12/08 12:03:04;;;;;;;17.85;8.52;;;5.40;99.90;;;;;;5092215;28;20114;-74
2020/12/08 12:05:30;;;;;;;16.25;7.82;;;5.50;99.90;;;;;;5095916;28;20019;-74
2020/12/08 12:07:55;;;;;;;16.52;8.05;;;5.50;99.90;;;;;;5097335;28;20385;-74
2020/12/08 12:10:21;;;;;;;16.10;7.00;;;5.60;99.90;;;;;;5097237;28;20024;-74
2020/12/08 12:12:46;;;;;;;15.50;7.85;;;5.60;99.90;;;;;;5095698;28;20077;-74
2020/12/08 12:15:12;;;;;;;19.73;9.02;;;5.60;99.90;;;;;;5094652;28;20389;-73
2020/12/08 12:17:37;;;;;;;16.77;9.05;;;5.60;99.90;;;;;;5095701;28;20683;-74
2020/12/08 12:20:04;;;;;;;14.90;6.85;;;5.60;99.90;;;;;;5094667;28;20492;-74
2020/12/08 12:22:30;;;;;;;14.63;7.78;;;5.60;99.90;;;;;;5095312;28;20040;-74
2020/12/08 12:24:55;;;;;;;16.42;7.47;;;5.60;99.90;;;;;;5096513;28;20051;-74
2020/12/08 12:27:21;;;;;;;16.08;7.53;;;5.60;99.90;;;;;;5096457;28;20038;-74
2020/12/08 12:29:47;;;;;;;16.20;7.47;;;5.70;99.90;;;;;;5095316;28;20018;-74
2020/12/08 12:32:12;;;;;;;13.13;7.15;;;5.70;99.90;;;;;;5096458;28;20024;-74
2020/12/08 12:34:38;;;;;;;13.68;6.70;;;5.70;99.90;;;;;;5096576;28;20027;-74
2020/12/08 12:37:04;;;;;;;20.23;8.48;;;5.80;99.90;;;;;;5096287;28;20028;-74
2020/12/08 12:39:29;;;;;;;17.63;7.28;;;5.80;99.90;;;;;;5095103;28;20039;-74
2020/12/08 12:41:55;;;;;;;17.48;8.20;;;5.80;99.90;;;;;;5096250;28;20024;-74